Wolverton, Minnesota
Current Conditions -  °F | °C
As of 10:14 PM on Tuesday 21 Oct 2014 (Local Time) from KJKJ Reporting Station
Clear Clear  
Wind Chill: 57°   Ceiling: Unl
Heat Index: 57°   Visibility: 10mi
Dew Point: 43°   Wind: 22mph
Humidity: 59%   Direction: 150°SSE
Pressure: 29.93"   Gusts: 30mph
Location:  46.56°N, 96.73°W
Report Text: KJKJ 220314Z AUTO 15019G26KT 10SM CLR 14/06 A2993 RMK AO2
Loading
Personal Weather Stations






























Interactive Weather Map
Tropical Storm Tracking
New forecast layout! Learn more

10-Day Weather Forecast

Advertisements
Track Severe Weather on mobile